Time,TemperatureF,DewpointF,PressureIn,WindDirection,WindDirectionDegrees,WindSpeedMPH,WindSpeedGustMPH,Humidity,HourlyPrecipIn,Conditions,Clouds,dailyrainin,SoftwareType,DateUTC
2016-02-13 00:02:00,23.5,18.9,29.63,North,0,2.2,2.2,82,0.00,,,0.00,meteobridge,2016-02-13 05:02:00,
2016-02-13 00:07:00,23.5,18.9,29.63,North,0,2.2,2.2,82,0.00,,,0.00,meteobridge,2016-02-13 05:07:00,
2016-02-13 00:12:00,23.4,18.7,29.63,NW,315,0.0,1.6,82,0.00,,,0.00,meteobridge,2016-02-13 05:12:00,
2016-02-13 00:17:00,23.2,18.5,29.62,NW,315,0.0,0.7,82,0.00,,,0.00,meteobridge,2016-02-13 05:17:00,
2016-02-13 00:22:00,22.8,18.5,29.62,NW,315,0.7,1.6,83,0.00,,,0.00,meteobridge,2016-02-13 05:22:00,
2016-02-13 00:27:00,22.8,18.5,29.62,NW,315,0.7,1.6,83,0.00,,,0.00,meteobridge,2016-02-13 05:27:00,
2016-02-13 00:33:00,22.6,18.3,29.63,North,0,0.7,0.7,83,0.00,,,0.00,meteobridge,2016-02-13 05:33:00,
2016-02-13 00:38:00,22.5,18.1,29.62,SE,135,1.6,1.6,83,0.00,,,0.00,meteobridge,2016-02-13 05:38:00,
2016-02-13 00:43:00,22.5,18.1,29.62,SE,135,0.7,1.6,83,0.00,,,0.00,meteobridge,2016-02-13 05:43:00,
2016-02-13 00:48:00,22.1,17.8,29.62,SE,135,0.0,0.0,83,0.00,,,0.00,meteobridge,2016-02-13 05:48:00,
2016-02-13 00:53:00,21.9,17.6,29.62,SE,135,0.7,0.7,83,0.00,,,0.00,meteobridge,2016-02-13 05:53:00,
2016-02-13 00:58:00,21.9,17.8,29.62,NW,315,1.6,2.2,84,0.00,,,0.00,meteobridge,2016-02-13 05:58:00,
2016-02-13 01:04:00,21.9,18.1,29.62,NW,315,1.6,1.6,85,0.00,,,0.00,meteobridge,2016-02-13 06:04:00,
2016-02-13 01:09:00,22.1,18.3,29.62,SW,225,0.7,1.6,85,0.00,,,0.00,meteobridge,2016-02-13 06:09:00,
2016-02-13 01:14:00,22.1,18.5,29.62,North,0,1.6,2.2,86,0.00,,,0.00,meteobridge,2016-02-13 06:14:00,
2016-02-13 01:19:00,22.1,18.5,29.62,North,0,1.6,2.2,86,0.00,,,0.00,meteobridge,2016-02-13 06:19:00,
2016-02-13 01:24:00,22.1,18.9,29.62,North,0,3.1,3.1,87,0.00,,,0.00,meteobridge,2016-02-13 06:24:00,
2016-02-13 01:35:00,22.3,19.0,29.62,West,270,1.6,3.1,87,0.00,,,0.00,meteobridge,2016-02-13 06:35:00,
2016-02-13 01:40:00,22.1,18.9,29.62,NW,315,1.6,3.1,87,0.00,,,0.00,meteobridge,2016-02-13 06:40:00,
2016-02-13 01:50:00,22.1,19.0,29.62,NW,315,3.1,3.1,88,0.00,,,0.00,meteobridge,2016-02-13 06:50:00,
2016-02-13 02:00:00,21.9,18.7,29.62,NW,315,1.6,1.6,87,0.00,,,0.00,meteobridge,2016-02-13 07:00:00,
2016-02-13 02:06:00,21.9,18.7,29.62,NW,315,1.6,1.6,87,0.00,,,0.00,meteobridge,2016-02-13 07:06:00,
2016-02-13 02:11:00,21.7,18.5,29.62,NNW,338,2.2,2.2,87,0.00,,,0.00,meteobridge,2016-02-13 07:11:00,
2016-02-13 02:16:00,21.7,18.5,29.62,NNW,338,2.2,3.1,87,0.00,,,0.00,meteobridge,2016-02-13 07:16:00,
2016-02-13 02:21:00,21.7,18.5,29.62,North,0,0.7,1.6,87,0.00,,,0.00,meteobridge,2016-02-13 07:21:00,
2016-02-13 02:26:00,21.7,18.5,29.62,NW,315,1.6,2.2,87,0.00,,,0.00,meteobridge,2016-02-13 07:26:00,
2016-02-13 02:31:00,21.9,17.8,29.63,WNW,293,6.0,8.3,84,0.00,,,0.00,meteobridge,2016-02-13 07:31:00,
2016-02-13 02:37:00,22.8,18.0,29.63,West,270,3.8,6.0,81,0.00,,,0.00,meteobridge,2016-02-13 07:37:00,
2016-02-13 02:42:00,23.4,17.6,29.63,NW,315,7.6,7.6,78,0.00,,,0.00,meteobridge,2016-02-13 07:42:00,
2016-02-13 02:47:00,23.5,17.4,29.62,West,270,6.9,6.9,77,0.00,,,0.00,meteobridge,2016-02-13 07:47:00,
2016-02-13 02:52:00,23.5,16.7,29.63,North,0,9.2,9.2,75,0.00,,,0.00,meteobridge,2016-02-13 07:52:00,
2016-02-13 02:57:00,23.5,16.7,29.64,NW,315,6.0,7.6,75,0.00,,,0.00,meteobridge,2016-02-13 07:57:00,
2016-02-13 03:02:00,23.7,16.9,29.64,SW,225,3.1,3.1,75,0.00,,,0.00,meteobridge,2016-02-13 08:02:00,
2016-02-13 03:08:00,23.7,16.9,29.64,SW,225,6.0,6.0,75,0.00,,,0.00,meteobridge,2016-02-13 08:08:00,
2016-02-13 03:13:00,23.7,16.9,29.64,North,0,4.5,8.3,75,0.00,,,0.00,meteobridge,2016-02-13 08:13:00,
2016-02-13 03:18:00,23.5,17.4,29.64,North,0,3.1,3.8,77,0.00,,,0.00,meteobridge,2016-02-13 08:18:00,
2016-02-13 03:23:00,23.4,17.6,29.64,North,0,4.5,8.3,78,0.00,,,0.00,meteobridge,2016-02-13 08:23:00,
2016-02-13 03:28:00,23.2,17.1,29.64,NW,315,3.8,3.8,77,0.00,,,0.00,meteobridge,2016-02-13 08:28:00,
2016-02-13 03:39:00,23.2,15.8,29.65,North,0,5.4,9.2,73,0.00,,,0.00,meteobridge,2016-02-13 08:39:00,
2016-02-13 03:44:00,23.2,15.3,29.65,SW,225,4.5,6.9,71,0.00,,,0.00,meteobridge,2016-02-13 08:44:00,
2016-02-13 03:49:00,23.4,14.0,29.65,North,0,5.4,10.7,67,0.00,,,0.00,meteobridge,2016-02-13 08:49:00,
2016-02-13 03:54:00,23.4,12.9,29.65,SW,225,4.5,7.6,64,0.00,,,0.00,meteobridge,2016-02-13 08:54:00,
2016-02-13 04:04:00,23.5,12.0,29.67,NW,315,3.8,3.8,61,0.00,,,0.00,meteobridge,2016-02-13 09:04:00,
2016-02-13 04:10:00,23.4,12.9,29.68,North,0,9.2,15.9,64,0.00,,,0.00,meteobridge,2016-02-13 09:10:00,
2016-02-13 04:15:00,23.0,12.9,29.67,NW,315,6.0,8.3,65,0.00,,,0.00,meteobridge,2016-02-13 09:15:00,
2016-02-13 04:20:00,22.5,13.1,29.67,NW,315,4.5,6.9,67,0.00,,,0.00,meteobridge,2016-02-13 09:20:00,
2016-02-13 04:25:00,22.1,12.7,29.68,NNW,338,9.2,9.2,67,0.00,,,0.00,meteobridge,2016-02-13 09:25:00,
2016-02-13 04:30:00,21.9,12.4,29.68,North,0,7.6,7.6,66,0.00,,,0.00,meteobridge,2016-02-13 09:30:00,
2016-02-13 04:35:00,21.9,12.4,29.68,North,0,9.8,9.8,66,0.00,,,0.00,meteobridge,2016-02-13 09:35:00,
2016-02-13 04:41:00,21.9,12.4,29.69,North,0,4.5,5.4,66,0.00,,,0.00,meteobridge,2016-02-13 09:41:00,
2016-02-13 04:46:00,21.7,12.2,29.70,NNW,338,6.9,6.9,66,0.00,,,0.00,meteobridge,2016-02-13 09:46:00,
2016-02-13 04:56:00,21.6,12.0,29.70,North,0,3.8,5.4,66,0.00,,,0.00,meteobridge,2016-02-13 09:56:00,
2016-02-13 05:01:00,21.4,11.5,29.70,West,270,4.5,4.5,65,0.00,,,0.00,meteobridge,2016-02-13 10:01:00,
2016-02-13 05:07:00,21.4,11.5,29.70,West,270,4.5,4.5,65,0.00,,,0.00,meteobridge,2016-02-13 10:07:00,
2016-02-13 05:12:00,21.0,11.8,29.71,North,0,7.6,7.6,67,0.00,,,0.00,meteobridge,2016-02-13 10:12:00,
2016-02-13 05:17:00,21.0,11.5,29.71,NE,45,7.6,13.0,66,0.00,,,0.00,meteobridge,2016-02-13 10:17:00,
2016-02-13 05:22:00,20.8,10.9,29.72,SW,225,8.3,11.4,65,0.00,,,0.00,meteobridge,2016-02-13 10:22:00,
2016-02-13 05:27:00,20.8,10.6,29.72,North,0,8.3,8.3,64,0.00,,,0.00,meteobridge,2016-02-13 10:27:00,
2016-02-13 05:32:00,20.7,10.4,29.72,North,0,13.0,13.0,64,0.00,,,0.00,meteobridge,2016-02-13 10:32:00,
2016-02-13 05:38:00,20.7,10.0,29.73,South,180,5.4,9.2,63,0.00,,,0.00,meteobridge,2016-02-13 10:38:00,
2016-02-13 05:43:00,20.5,9.9,29.74,West,270,5.4,7.6,63,0.00,,,0.00,meteobridge,2016-02-13 10:43:00,
2016-02-13 05:48:00,20.3,9.7,29.74,NW,315,6.0,6.0,63,0.00,,,0.00,meteobridge,2016-02-13 10:48:00,
2016-02-13 05:53:00,20.3,9.7,29.74,North,0,4.5,6.0,63,0.00,,,0.00,meteobridge,2016-02-13 10:53:00,
2016-02-13 05:58:00,20.1,9.5,29.74,NE,45,5.4,6.9,63,0.00,,,0.00,meteobridge,2016-02-13 10:58:00,
2016-02-13 06:03:00,20.1,9.9,29.75,NW,315,7.6,7.6,64,0.00,,,0.00,meteobridge,2016-02-13 11:03:00,
2016-02-13 06:09:00,20.1,9.5,29.74,SW,225,4.5,7.6,63,0.00,,,0.00,meteobridge,2016-02-13 11:09:00,
2016-02-13 06:14:00,20.1,9.5,29.75,NW,315,6.9,8.3,63,0.00,,,0.00,meteobridge,2016-02-13 11:14:00,
2016-02-13 06:24:00,20.1,9.5,29.75,NW,315,9.2,9.8,63,0.00,,,0.00,meteobridge,2016-02-13 11:24:00,
2016-02-13 06:29:00,20.7,10.4,29.76,North,0,9.2,9.2,64,0.00,,,0.00,meteobridge,2016-02-13 11:29:00,
2016-02-13 06:34:00,19.9,10.0,29.76,WNW,293,6.0,10.7,65,0.00,,,0.00,meteobridge,2016-02-13 11:34:00,
2016-02-13 06:40:00,19.8,10.6,29.76,North,0,9.2,9.2,67,0.00,,,0.00,meteobridge,2016-02-13 11:40:00,
2016-02-13 06:45:00,19.6,11.1,29.76,North,0,8.3,11.4,69,0.00,,,0.00,meteobridge,2016-02-13 11:45:00,
2016-02-13 06:50:00,19.4,10.9,29.77,NW,315,7.6,7.6,69,0.00,,,0.00,meteobridge,2016-02-13 11:50:00,
2016-02-13 06:55:00,19.4,11.3,29.77,North,0,5.4,10.7,70,0.00,,,0.00,meteobridge,2016-02-13 11:55:00,
2016-02-13 07:00:00,19.4,11.5,29.78,NW,315,4.5,4.5,71,0.00,,,0.00,meteobridge,2016-02-13 12:00:00,
2016-02-13 07:05:00,19.4,11.5,29.78,NW,315,4.5,4.5,71,0.00,,,0.00,meteobridge,2016-02-13 12:05:00,
2016-02-13 07:11:00,19.6,11.5,29.78,NNW,338,4.5,12.1,70,0.00,,,0.00,meteobridge,2016-02-13 12:11:00,
2016-02-13 07:16:00,19.2,10.8,29.78,NW,315,10.7,10.7,69,0.00,,,0.00,meteobridge,2016-02-13 12:16:00,
2016-02-13 07:21:00,19.2,10.4,29.78,NE,45,2.2,4.5,68,0.00,,,0.00,meteobridge,2016-02-13 12:21:00,
2016-02-13 07:26:00,19.0,9.5,29.79,NW,315,7.6,7.6,66,0.00,,,0.00,meteobridge,2016-02-13 12:26:00,
2016-02-13 07:31:00,19.0,9.5,29.79,North,0,6.0,6.0,66,0.00,,,0.00,meteobridge,2016-02-13 12:31:00,
2016-02-13 07:36:00,19.0,8.6,29.79,NW,315,3.8,8.3,63,0.00,,,0.00,meteobridge,2016-02-13 12:36:00,
2016-02-13 07:42:00,19.2,7.2,29.80,East,90,5.4,9.2,59,0.00,,,0.00,meteobridge,2016-02-13 12:42:00,
2016-02-13 07:47:00,19.4,6.6,29.80,North,0,6.0,6.9,57,0.00,,,0.00,meteobridge,2016-02-13 12:47:00,
2016-02-13 07:57:00,19.6,5.2,29.80,South,180,7.6,9.2,53,0.00,,,0.00,meteobridge,2016-02-13 12:57:00,
2016-02-13 08:02:00,19.8,5.7,29.81,North,0,3.8,7.6,54,0.00,,,0.00,meteobridge,2016-02-13 13:02:00,
2016-02-13 08:07:00,20.1,5.7,29.81,NW,315,3.8,4.5,53,0.00,,,0.00,meteobridge,2016-02-13 13:07:00,
2016-02-13 08:18:00,19.8,6.3,29.81,North,0,6.9,7.6,55,0.00,,,0.00,meteobridge,2016-02-13 13:18:00,
2016-02-13 08:23:00,19.6,6.4,29.82,NW,315,6.0,6.9,56,0.00,,,0.00,meteobridge,2016-02-13 13:23:00,
2016-02-13 08:28:00,19.4,6.6,29.82,West,270,6.0,7.6,57,0.00,,,0.00,meteobridge,2016-02-13 13:28:00,
2016-02-13 08:33:00,19.0,5.9,29.82,NW,315,10.7,10.7,56,0.00,,,0.00,meteobridge,2016-02-13 13:33:00,
2016-02-13 08:38:00,19.0,7.2,29.82,East,90,12.1,12.1,59,0.00,,,0.00,meteobridge,2016-02-13 13:38:00,
2016-02-13 08:44:00,18.9,7.3,29.83,NNW,338,8.3,15.9,60,0.00,,,0.00,meteobridge,2016-02-13 13:44:00,
2016-02-13 08:49:00,18.9,8.1,29.83,West,270,6.0,8.3,62,0.00,,,0.00,meteobridge,2016-02-13 13:49:00,
2016-02-13 08:59:00,19.2,8.4,29.83,West,270,7.6,7.6,62,0.00,,,0.00,meteobridge,2016-02-13 13:59:00,
2016-02-13 09:04:00,18.9,5.7,29.83,NNW,338,9.2,12.1,56,0.00,,,0.00,meteobridge,2016-02-13 14:04:00,
2016-02-13 09:09:00,18.7,5.2,29.83,North,0,5.4,13.0,55,0.00,,,0.00,meteobridge,2016-02-13 14:09:00,
2016-02-13 09:15:00,18.7,4.5,29.84,NW,315,7.6,11.4,53,0.00,,,0.00,meteobridge,2016-02-13 14:15:00,
2016-02-13 09:20:00,18.5,3.4,29.83,NW,315,15.2,15.2,51,0.00,,,0.00,meteobridge,2016-02-13 14:20:00,
2016-02-13 09:25:00,18.5,2.1,29.84,NE,45,8.3,13.0,48,0.00,,,0.00,meteobridge,2016-02-13 14:25:00,
2016-02-13 09:30:00,18.7,2.3,29.83,North,0,5.4,6.9,48,0.00,,,0.00,meteobridge,2016-02-13 14:30:00,
2016-02-13 09:35:00,19.0,2.7,29.85,WNW,293,6.9,9.2,48,0.00,,,0.00,meteobridge,2016-02-13 14:35:00,
2016-02-13 09:40:00,18.7,3.9,29.85,North,0,6.9,8.3,52,0.00,,,0.00,meteobridge,2016-02-13 14:40:00,
2016-02-13 09:46:00,18.1,3.0,29.85,NW,315,8.3,10.7,51,0.00,,,0.00,meteobridge,2016-02-13 14:46:00,
2016-02-13 09:51:00,17.8,2.7,29.86,South,180,6.0,6.9,51,0.00,,,0.00,meteobridge,2016-02-13 14:51:00,
2016-02-13 09:56:00,18.1,2.1,29.85,NW,315,5.4,8.3,49,0.00,,,0.00,meteobridge,2016-02-13 14:56:00,
2016-02-13 10:01:00,18.5,1.6,29.85,West,270,6.0,7.6,47,0.00,,,0.00,meteobridge,2016-02-13 15:01:00,
2016-02-13 10:06:00,18.1,0.3,29.86,WNW,293,7.6,15.2,45,0.00,,,0.00,meteobridge,2016-02-13 15:06:00,
2016-02-13 10:11:00,18.0,-0.2,29.86,NE,45,8.3,15.2,44,0.00,,,0.00,meteobridge,2016-02-13 15:11:00,
2016-02-13 10:17:00,18.1,0.0,29.87,NW,315,7.6,10.7,44,0.00,,,0.00,meteobridge,2016-02-13 15:17:00,
2016-02-13 10:27:00,18.7,-1.1,29.88,SW,225,9.8,12.1,41,0.00,,,0.00,meteobridge,2016-02-13 15:27:00,
2016-02-13 10:32:00,19.4,-1.5,29.88,NW,315,8.3,12.1,39,0.00,,,0.00,meteobridge,2016-02-13 15:32:00,
2016-02-13 10:37:00,19.8,-1.7,29.88,NNW,338,9.8,13.6,38,0.00,,,0.00,meteobridge,2016-02-13 15:37:00,
2016-02-13 10:42:00,20.1,-1.5,29.88,WNW,293,3.1,12.1,38,0.00,,,0.00,meteobridge,2016-02-13 15:42:00,
2016-02-13 10:48:00,20.1,-1.5,29.89,NW,315,12.1,12.1,38,0.00,,,0.00,meteobridge,2016-02-13 15:48:00,
2016-02-13 10:53:00,19.9,-1.7,29.89,North,0,12.1,12.1,38,0.00,,,0.00,meteobridge,2016-02-13 15:53:00,
2016-02-13 10:58:00,19.8,-0.6,29.89,NW,315,6.9,13.6,40,0.00,,,0.00,meteobridge,2016-02-13 15:58:00,
2016-02-13 11:03:00,20.1,-1.5,29.89,NW,315,13.6,13.6,38,0.00,,,0.00,meteobridge,2016-02-13 16:03:00,
2016-02-13 11:08:00,20.5,-1.1,29.89,NW,315,9.8,9.8,38,0.00,,,0.00,meteobridge,2016-02-13 16:08:00,
2016-02-13 11:13:00,19.9,-2.2,29.89,NW,315,6.9,15.2,37,0.00,,,0.00,meteobridge,2016-02-13 16:13:00,
2016-02-13 11:19:00,19.6,-1.8,29.89,NW,315,7.6,8.3,38,0.00,,,0.00,meteobridge,2016-02-13 16:19:00,
2016-02-13 11:24:00,19.6,-2.6,29.90,NW,315,9.2,13.0,37,0.00,,,0.00,meteobridge,2016-02-13 16:24:00,
2016-02-13 11:29:00,20.3,-1.8,29.88,North,0,8.3,11.4,37,0.00,,,0.00,meteobridge,2016-02-13 16:29:00,
2016-02-13 11:39:00,20.3,-2.4,29.88,NW,315,13.0,13.0,36,0.00,,,0.00,meteobridge,2016-02-13 16:39:00,
2016-02-13 11:45:00,19.9,-2.2,29.89,West,270,9.2,13.0,37,0.00,,,0.00,meteobridge,2016-02-13 16:45:00,
2016-02-13 11:50:00,20.1,-0.9,29.89,North,0,9.8,12.1,39,0.00,,,0.00,meteobridge,2016-02-13 16:50:00,
2016-02-13 11:55:00,20.1,-0.9,29.89,West,270,5.4,9.2,39,0.00,,,0.00,meteobridge,2016-02-13 16:55:00,
2016-02-13 12:00:00,19.8,-1.1,29.89,NW,315,10.7,10.7,39,0.00,,,0.00,meteobridge,2016-02-13 17:00:00,
2016-02-13 12:05:00,20.5,-1.1,29.89,West,270,7.6,12.1,38,0.00,,,0.00,meteobridge,2016-02-13 17:05:00,
2016-02-13 12:10:00,20.3,-1.3,29.89,North,0,6.9,12.1,38,0.00,,,0.00,meteobridge,2016-02-13 17:10:00,
2016-02-13 12:16:00,20.8,-0.8,29.89,NNW,338,7.6,7.6,38,0.00,,,0.00,meteobridge,2016-02-13 17:16:00,
2016-02-13 12:21:00,20.8,-0.8,29.88,West,270,6.9,8.3,38,0.00,,,0.00,meteobridge,2016-02-13 17:21:00,
2016-02-13 12:26:00,20.7,-0.4,29.89,NE,45,7.6,13.0,39,0.00,,,0.00,meteobridge,2016-02-13 17:26:00,
2016-02-13 12:31:00,21.2,0.1,29.89,North,0,5.4,5.4,39,0.00,,,0.00,meteobridge,2016-02-13 17:31:00,
2016-02-13 12:36:00,22.6,0.3,29.89,North,0,7.6,7.6,37,0.00,,,0.00,meteobridge,2016-02-13 17:36:00,
2016-02-13 12:41:00,22.6,0.3,29.89,NE,45,7.6,8.3,37,0.00,,,0.00,meteobridge,2016-02-13 17:41:00,
2016-02-13 12:46:00,21.7,0.0,29.89,North,0,7.6,7.6,38,0.00,,,0.00,meteobridge,2016-02-13 17:46:00,
2016-02-13 12:52:00,20.8,-0.2,29.89,NW,315,9.8,9.8,39,0.00,,,0.00,meteobridge,2016-02-13 17:52:00,
2016-02-13 12:57:00,21.0,0.0,29.89,North,0,9.2,13.0,39,0.00,,,0.00,meteobridge,2016-02-13 17:57:00,
2016-02-13 13:02:00,21.4,0.3,29.89,West,270,5.4,5.4,39,0.00,,,0.00,meteobridge,2016-02-13 18:02:00,
2016-02-13 13:12:00,21.2,-0.9,29.89,North,0,9.2,9.2,37,0.00,,,0.00,meteobridge,2016-02-13 18:12:00,
2016-02-13 13:17:00,20.3,-1.3,29.89,North,0,7.6,9.8,38,0.00,,,0.00,meteobridge,2016-02-13 18:17:00,
2016-02-13 13:23:00,19.6,-1.3,29.89,NNW,338,9.8,9.8,39,0.00,,,0.00,meteobridge,2016-02-13 18:23:00,
2016-02-13 13:28:00,19.4,-1.5,29.88,WNW,293,6.9,9.2,39,0.00,,,0.00,meteobridge,2016-02-13 18:28:00,
2016-02-13 13:33:00,19.4,-1.5,29.89,North,0,10.7,10.7,39,0.00,,,0.00,meteobridge,2016-02-13 18:33:00,
2016-02-13 13:38:00,19.6,-1.3,29.89,NW,315,8.3,14.5,39,0.00,,,0.00,meteobridge,2016-02-13 18:38:00,
2016-02-13 13:43:00,20.3,-1.3,29.88,South,180,6.9,7.6,38,0.00,,,0.00,meteobridge,2016-02-13 18:43:00,
2016-02-13 13:49:00,20.1,-0.9,29.88,North,0,4.5,11.4,39,0.00,,,0.00,meteobridge,2016-02-13 18:49:00,
2016-02-13 13:54:00,19.9,-2.2,29.89,West,270,8.3,8.3,37,0.00,,,0.00,meteobridge,2016-02-13 18:54:00,
2016-02-13 13:59:00,19.2,-2.7,29.89,North,0,6.0,8.3,37,0.00,,,0.00,meteobridge,2016-02-13 18:59:00,
2016-02-13 14:04:00,19.4,-2.0,29.89,NW,315,4.5,4.5,38,0.00,,,0.00,meteobridge,2016-02-13 19:04:00,
2016-02-13 14:09:00,19.9,-1.1,29.89,South,180,4.5,7.6,39,0.00,,,0.00,meteobridge,2016-02-13 19:09:00,
2016-02-13 14:14:00,20.5,-2.2,29.90,North,0,6.0,9.2,36,0.00,,,0.00,meteobridge,2016-02-13 19:14:00,
2016-02-13 14:20:00,20.8,-1.8,29.90,NW,315,6.9,9.8,36,0.00,,,0.00,meteobridge,2016-02-13 19:20:00,
2016-02-13 14:25:00,21.0,-2.4,29.90,WNW,293,8.3,8.3,35,0.00,,,0.00,meteobridge,2016-02-13 19:25:00,
2016-02-13 14:30:00,20.3,-2.4,29.90,NW,315,3.1,12.1,36,0.00,,,0.00,meteobridge,2016-02-13 19:30:00,
2016-02-13 14:35:00,19.9,-2.7,29.90,North,0,6.9,8.3,36,0.00,,,0.00,meteobridge,2016-02-13 19:35:00,
2016-02-13 14:40:00,21.2,-0.9,29.90,SW,225,2.2,6.9,37,0.00,,,0.00,meteobridge,2016-02-13 19:40:00,
2016-02-13 14:45:00,21.6,-1.3,29.90,NW,315,6.9,9.2,36,0.00,,,0.00,meteobridge,2016-02-13 19:45:00,
2016-02-13 14:51:00,21.0,-2.4,29.90,NW,315,7.6,14.5,35,0.00,,,0.00,meteobridge,2016-02-13 19:51:00,
2016-02-13 14:56:00,21.7,-1.7,29.91,NW,315,13.6,13.6,35,0.00,,,0.00,meteobridge,2016-02-13 19:56:00,
2016-02-13 15:01:00,20.7,-2.7,29.91,WNW,293,11.4,19.7,35,0.00,,,0.00,meteobridge,2016-02-13 20:01:00,
2016-02-13 15:06:00,19.9,-2.2,29.91,NW,315,7.6,10.7,37,0.00,,,0.00,meteobridge,2016-02-13 20:06:00,
2016-02-13 15:11:00,20.7,-1.5,29.91,NW,315,6.9,7.6,37,0.00,,,0.00,meteobridge,2016-02-13 20:11:00,
2016-02-13 15:16:00,20.8,-1.8,29.91,NW,315,5.4,5.4,36,0.00,,,0.00,meteobridge,2016-02-13 20:16:00,
2016-02-13 15:22:00,20.3,-1.8,29.91,NW,315,7.6,14.5,37,0.00,,,0.00,meteobridge,2016-02-13 20:22:00,
2016-02-13 15:27:00,19.6,-2.6,29.92,NW,315,6.0,9.8,37,0.00,,,0.00,meteobridge,2016-02-13 20:27:00,
2016-02-13 15:32:00,19.0,-3.5,29.92,North,0,9.8,9.8,36,0.00,,,0.00,meteobridge,2016-02-13 20:32:00,
2016-02-13 15:37:00,18.7,-3.3,29.91,North,0,5.4,9.8,37,0.00,,,0.00,meteobridge,2016-02-13 20:37:00,
2016-02-13 15:42:00,18.7,-3.3,29.92,SW,225,9.2,11.4,37,0.00,,,0.00,meteobridge,2016-02-13 20:42:00,
2016-02-13 15:47:00,18.7,-3.8,29.93,West,270,14.5,14.5,36,0.00,,,0.00,meteobridge,2016-02-13 20:47:00,
2016-02-13 15:53:00,19.4,-2.6,29.93,NW,315,9.8,10.7,37,0.00,,,0.00,meteobridge,2016-02-13 20:53:00,
2016-02-13 15:58:00,19.2,-2.2,29.93,North,0,4.5,13.0,38,0.00,,,0.00,meteobridge,2016-02-13 20:58:00,
2016-02-13 16:03:00,19.4,-2.0,29.93,SW,225,4.5,5.4,38,0.00,,,0.00,meteobridge,2016-02-13 21:03:00,
2016-02-13 16:08:00,19.0,-2.9,29.93,NW,315,9.8,9.8,37,0.00,,,0.00,meteobridge,2016-02-13 21:08:00,
2016-02-13 16:13:00,19.6,-3.1,29.93,North,0,10.7,10.7,36,0.00,,,0.00,meteobridge,2016-02-13 21:13:00,
2016-02-13 16:18:00,19.2,-3.5,29.93,WNW,293,6.0,7.6,36,0.00,,,0.00,meteobridge,2016-02-13 21:18:00,
2016-02-13 16:24:00,19.0,-4.2,29.93,North,0,13.6,14.5,35,0.00,,,0.00,meteobridge,2016-02-13 21:24:00,
2016-02-13 16:29:00,18.9,-4.4,29.93,NW,315,12.1,14.5,35,0.00,,,0.00,meteobridge,2016-02-13 21:29:00,
2016-02-13 16:34:00,18.5,-4.0,29.94,West,270,8.3,9.8,36,0.00,,,0.00,meteobridge,2016-02-13 21:34:00,
2016-02-13 16:39:00,18.3,-3.6,29.94,North,0,6.0,8.3,37,0.00,,,0.00,meteobridge,2016-02-13 21:39:00,
2016-02-13 16:44:00,17.8,-4.0,29.95,NNE,23,9.2,9.2,37,0.00,,,0.00,meteobridge,2016-02-13 21:44:00,
2016-02-13 16:49:00,17.6,-3.6,29.95,North,0,6.0,10.7,38,0.00,,,0.00,meteobridge,2016-02-13 21:49:00,
2016-02-13 16:55:00,17.6,-3.1,29.95,NW,315,8.3,8.3,39,0.00,,,0.00,meteobridge,2016-02-13 21:55:00,
2016-02-13 17:00:00,17.2,-3.5,29.95,NW,315,18.3,18.3,39,0.00,,,0.00,meteobridge,2016-02-13 22:00:00,
2016-02-13 17:05:00,17.1,-3.6,29.96,North,0,6.0,9.2,39,0.00,,,0.00,meteobridge,2016-02-13 22:05:00,
2016-02-13 17:10:00,17.1,-3.6,29.96,North,0,5.4,5.4,39,0.00,,,0.00,meteobridge,2016-02-13 22:10:00,
2016-02-13 17:15:00,16.9,-3.3,29.96,NW,315,6.0,6.9,40,0.00,,,0.00,meteobridge,2016-02-13 22:15:00,
2016-02-13 17:20:00,16.7,-3.5,29.97,West,270,6.9,9.8,40,0.00,,,0.00,meteobridge,2016-02-13 22:20:00,
2016-02-13 17:26:00,16.5,-3.1,29.96,North,0,6.0,9.2,41,0.00,,,0.00,meteobridge,2016-02-13 22:26:00,
2016-02-13 17:31:00,16.5,-2.6,29.97,West,270,4.5,7.6,42,0.00,,,0.00,meteobridge,2016-02-13 22:31:00,
2016-02-13 17:36:00,16.3,-2.2,29.97,NE,45,10.7,10.7,43,0.00,,,0.00,meteobridge,2016-02-13 22:36:00,
2016-02-13 17:41:00,16.2,-1.8,29.98,West,270,6.0,9.8,44,0.00,,,0.00,meteobridge,2016-02-13 22:41:00,
2016-02-13 17:46:00,16.2,-1.8,29.97,West,270,3.8,6.9,44,0.00,,,0.00,meteobridge,2016-02-13 22:46:00,
2016-02-13 17:51:00,16.0,-1.7,29.98,North,0,3.1,6.0,45,0.00,,,0.00,meteobridge,2016-02-13 22:51:00,
2016-02-13 18:02:00,16.0,-1.7,29.99,NW,315,3.8,4.5,45,0.00,,,0.00,meteobridge,2016-02-13 23:02:00,
2016-02-13 18:07:00,15.8,-1.3,29.99,West,270,8.3,8.3,46,0.00,,,0.00,meteobridge,2016-02-13 23:07:00,
2016-02-13 18:12:00,15.8,-1.8,30.00,North,0,6.0,7.6,45,0.00,,,0.00,meteobridge,2016-02-13 23:12:00,
2016-02-13 18:22:00,15.8,-2.7,30.00,NW,315,7.6,7.6,43,0.00,,,0.00,meteobridge,2016-02-13 23:22:00,
2016-02-13 18:28:00,15.8,-2.7,30.00,SW,225,4.5,4.5,43,0.00,,,0.00,meteobridge,2016-02-13 23:28:00,
2016-02-13 18:33:00,15.6,-3.5,30.01,South,180,5.4,6.0,42,0.00,,,0.00,meteobridge,2016-02-13 23:33:00,
2016-02-13 18:38:00,15.6,-2.9,30.01,West,270,4.5,4.5,43,0.00,,,0.00,meteobridge,2016-02-13 23:38:00,
2016-02-13 18:43:00,15.6,-2.9,30.01,West,270,1.6,2.2,43,0.00,,,0.00,meteobridge,2016-02-13 23:43:00,
2016-02-13 18:48:00,15.6,-2.9,30.02,NNW,338,5.4,7.6,43,0.00,,,0.00,meteobridge,2016-02-13 23:48:00,
2016-02-13 18:53:00,15.6,-2.9,30.02,North,0,4.5,4.5,43,0.00,,,0.00,meteobridge,2016-02-13 23:53:00,
2016-02-13 18:59:00,15.4,-3.1,30.02,West,270,1.6,2.2,43,0.00,,,0.00,meteobridge,2016-02-13 23:59:00,
2016-02-13 19:04:00,15.4,-2.6,30.02,NW,315,4.5,8.3,44,0.00,,,0.00,meteobridge,2016-02-14 00:04:00,
2016-02-13 19:09:00,15.4,-2.2,30.02,WNW,293,3.1,3.1,45,0.00,,,0.00,meteobridge,2016-02-14 00:09:00,
2016-02-13 19:14:00,15.4,-1.7,30.02,NW,315,3.1,3.8,46,0.00,,,0.00,meteobridge,2016-02-14 00:14:00,
2016-02-13 19:19:00,15.3,-2.2,30.02,WNW,293,3.1,3.8,45,0.00,,,0.00,meteobridge,2016-02-14 00:19:00,
2016-02-13 19:24:00,15.1,-2.0,30.02,North,0,4.5,6.0,46,0.00,,,0.00,meteobridge,2016-02-14 00:24:00,
2016-02-13 19:30:00,15.1,-2.9,30.02,North,0,7.6,10.7,44,0.00,,,0.00,meteobridge,2016-02-14 00:30:00,
2016-02-13 19:35:00,15.1,-2.9,30.02,NE,45,8.3,9.8,44,0.00,,,0.00,meteobridge,2016-02-14 00:35:00,
2016-02-13 19:40:00,14.9,-2.6,30.03,NW,315,8.3,8.3,45,0.00,,,0.00,meteobridge,2016-02-14 00:40:00,
2016-02-13 19:45:00,14.9,-2.6,30.03,North,0,6.9,7.6,45,0.00,,,0.00,meteobridge,2016-02-14 00:45:00,
2016-02-13 19:50:00,14.9,-2.2,30.03,NW,315,6.9,6.9,46,0.00,,,0.00,meteobridge,2016-02-14 00:50:00,
2016-02-13 19:56:00,14.7,-1.8,30.03,South,180,6.9,6.9,47,0.00,,,0.00,meteobridge,2016-02-14 00:56:00,
2016-02-13 20:01:00,14.5,-2.0,30.03,North,0,5.4,5.4,47,0.00,,,0.00,meteobridge,2016-02-14 01:01:00,
2016-02-13 20:06:00,14.5,-2.0,30.03,North,0,5.4,5.4,47,0.00,,,0.00,meteobridge,2016-02-14 01:06:00,
2016-02-13 20:11:00,14.5,-1.7,30.03,NE,45,4.5,9.2,48,0.00,,,0.00,meteobridge,2016-02-14 01:11:00,
2016-02-13 20:21:00,14.4,-1.3,30.03,NW,315,6.9,6.9,49,0.00,,,0.00,meteobridge,2016-02-14 01:21:00,
2016-02-13 20:27:00,14.4,-1.3,30.03,West,270,3.1,3.8,49,0.00,,,0.00,meteobridge,2016-02-14 01:27:00,
2016-02-13 20:32:00,14.2,-1.5,30.04,NW,315,6.0,9.8,49,0.00,,,0.00,meteobridge,2016-02-14 01:32:00,
2016-02-13 20:37:00,14.2,-1.1,30.04,North,0,6.0,6.0,50,0.00,,,0.00,meteobridge,2016-02-14 01:37:00,
2016-02-13 20:42:00,14.0,-1.3,30.04,North,0,3.8,6.9,50,0.00,,,0.00,meteobridge,2016-02-14 01:42:00,
2016-02-13 20:47:00,14.0,-0.8,30.04,South,180,6.9,9.2,51,0.00,,,0.00,meteobridge,2016-02-14 01:47:00,
2016-02-13 20:58:00,14.0,-0.4,30.04,West,270,5.4,6.9,52,0.00,,,0.00,meteobridge,2016-02-14 01:58:00,